createdAt,value
2019-03-21T00:01:23.084Z,9.75
2019-03-21T00:03:54.742Z,10.43
2019-03-21T00:06:22.819Z,10.15
2019-03-21T00:08:50.986Z,9.48
2019-03-21T00:11:56.635Z,10.35
2019-03-21T00:14:34.538Z,9.98
2019-03-21T00:17:12.337Z,10.65
2019-03-21T00:19:40.409Z,10.50
2019-03-21T00:22:08.788Z,10.00
2019-03-21T00:24:36.753Z,10.58
2019-03-21T00:27:04.726Z,9.18
2019-03-21T00:29:32.791Z,10.65
2019-03-21T00:32:00.964Z,10.45
2019-03-21T00:34:29.246Z,10.08
2019-03-21T00:36:57.318Z,10.45
2019-03-21T00:39:32.740Z,10.20
2019-03-21T00:41:56.324Z,10.55
2019-03-21T00:44:24.294Z,11.00
2019-03-21T00:46:52.163Z,11.03
2019-03-21T00:49:20.231Z,10.30
2019-03-21T00:51:48.708Z,11.05
2019-03-21T00:54:16.778Z,10.55
2019-03-21T00:56:44.747Z,11.33
2019-03-21T00:59:12.613Z,10.70
2019-03-21T01:01:41.196Z,11.05
2019-03-21T01:04:09.166Z,10.48
2019-03-21T01:06:37.338Z,11.63
2019-03-21T01:09:08.894Z,11.15
2019-03-21T01:11:36.862Z,11.43
2019-03-21T01:14:04.828Z,11.63
2019-03-21T01:16:32.693Z,12.07
2019-03-21T01:19:00.561Z,11.57
2019-03-21T01:21:28.431Z,11.60
2019-03-21T01:23:56.193Z,11.57
2019-03-21T01:26:24.154Z,12.33
2019-03-21T01:28:51.928Z,11.73
2019-03-21T01:31:19.682Z,12.20
2019-03-21T01:33:47.347Z,12.15
2019-03-21T01:36:15.933Z,11.65
2019-03-21T01:38:43.600Z,11.80
2019-03-21T01:41:14.016Z,11.55
2019-03-21T01:43:41.374Z,13.18
2019-03-21T01:46:17.741Z,12.73
2019-03-21T01:48:45.401Z,12.28
2019-03-21T01:51:13.365Z,13.15
2019-03-21T01:53:41.650Z,12.33
2019-03-21T01:56:09.414Z,12.63
2019-03-21T01:58:37.172Z,13.15
2019-03-21T02:01:08.707Z,12.33
2019-03-21T02:03:36.181Z,12.53
2019-03-21T02:06:03.951Z,12.82
2019-03-21T02:08:31.710Z,12.45
2019-03-21T02:10:59.579Z,12.63
2019-03-21T02:13:28.569Z,13.03
2019-03-21T02:15:59.293Z,13.72
2019-03-21T02:18:25.735Z,13.38
2019-03-21T02:20:53.502Z,11.30
2019-03-21T02:23:21.363Z,13.80
2019-03-21T02:25:49.134Z,13.55
2019-03-21T02:28:18.020Z,13.70
2019-03-21T02:30:48.956Z,13.40
2019-03-21T02:33:28.102Z,13.45
2019-03-21T02:35:55.757Z,14.73
2019-03-21T02:38:23.554Z,14.43
2019-03-21T02:40:54.354Z,15.80
2019-03-21T02:43:22.217Z,14.87
2019-03-21T02:45:49.982Z,14.87
2019-03-21T02:48:18.087Z,15.13
2019-03-21T02:50:45.730Z,16.62
2019-03-21T02:53:14.404Z,16.60
2019-03-21T02:55:42.291Z,15.20
2019-03-21T02:58:13.217Z,15.70
2019-03-21T03:00:42.720Z,15.63
2019-03-21T03:03:10.985Z,16.10
2019-03-21T03:05:38.544Z,16.45
2019-03-21T03:08:08.049Z,16.05
2019-03-21T03:10:45.274Z,16.20
2019-03-21T03:13:13.011Z,17.15
2019-03-21T03:15:41.583Z,17.12
2019-03-21T03:18:11.393Z,17.40
2019-03-21T03:20:38.745Z,16.90
2019-03-21T03:23:06.509Z,15.60
2019-03-21T03:25:34.884Z,16.45
2019-03-21T03:28:24.276Z,16.80
2019-03-21T03:30:56.732Z,16.95
2019-03-21T03:33:24.440Z,17.65
2019-03-21T03:35:52.665Z,17.37
2019-03-21T03:38:20.432Z,17.90
2019-03-21T03:40:58.234Z,19.10
2019-03-21T03:43:25.891Z,18.65
2019-03-21T03:45:53.660Z,19.30
2019-03-21T03:48:21.418Z,18.50
2019-03-21T03:50:49.286Z,19.25
2019-03-21T03:53:18.491Z,19.20
2019-03-21T03:55:46.554Z,17.98
2019-03-21T03:58:27.018Z,18.92
2019-03-21T04:00:55.291Z,18.07
2019-03-21T04:03:24.905Z,17.65
2019-03-21T04:05:52.872Z,18.15
2019-03-21T04:08:23.053Z,19.40
2019-03-21T04:10:53.003Z,19.32
2019-03-21T04:13:21.072Z,18.82
2019-03-21T04:15:53.235Z,17.30
2019-03-21T04:18:21.721Z,17.65
2019-03-21T04:20:57.064Z,16.57
2019-03-21T04:23:25.136Z,16.23
2019-03-21T04:26:14.916Z,17.60
2019-03-21T04:28:43.095Z,16.60
2019-03-21T04:31:11.053Z,15.68
2019-03-21T04:33:40.660Z,16.35
2019-03-21T04:36:08.346Z,16.25
2019-03-21T04:38:36.397Z,14.90
2019-03-21T04:41:04.668Z,15.35
2019-03-21T04:43:32.738Z,15.30
2019-03-21T04:46:03.735Z,15.08
2019-03-21T04:48:30.214Z,14.45
2019-03-21T04:50:59.511Z,14.95
2019-03-21T04:53:27.587Z,14.35
2019-03-21T04:55:55.653Z,14.93
2019-03-21T04:58:24.134Z,15.30
2019-03-21T05:00:54.868Z,14.90
2019-03-21T05:03:25.710Z,15.15
2019-03-21T05:05:54.693Z,14.75
2019-03-21T05:08:22.663Z,15.40
2019-03-21T05:10:51.352Z,14.68
2019-03-21T05:13:19.422Z,14.87
2019-03-21T05:15:49.539Z,15.50
2019-03-21T05:18:20.886Z,15.63
2019-03-21T05:20:49.066Z,16.12
2019-03-21T05:23:17.031Z,15.78
2019-03-21T05:25:44.996Z,16.52
2019-03-21T05:28:13.782Z,17.52
2019-03-21T05:30:48.829Z,18.52
2019-03-21T05:33:17.918Z,20.75
2019-03-21T05:35:45.884Z,19.80
2019-03-21T05:38:14.365Z,19.00
2019-03-21T05:40:42.125Z,19.32
2019-03-21T05:43:20.029Z,17.52
2019-03-21T05:45:47.716Z,18.90
2019-03-21T05:48:15.663Z,20.65
2019-03-21T05:50:43.627Z,19.62
2019-03-21T05:53:11.593Z,20.23
2019-03-21T05:55:40.181Z,17.30
2019-03-21T05:58:08.249Z,18.60
2019-03-21T06:00:43.077Z,17.62
2019-03-21T06:03:23.744Z,16.97
2019-03-21T06:05:57.540Z,16.20
2019-03-21T06:08:28.893Z,17.55
2019-03-21T06:10:56.462Z,21.15
2019-03-21T06:13:24.522Z,15.58
2019-03-21T06:15:52.593Z,16.15
2019-03-21T06:18:27.010Z,16.40
2019-03-21T06:21:04.607Z,16.35
2019-03-21T06:23:51.416Z,17.65
2019-03-21T06:26:41.093Z,16.17
2019-03-21T06:29:08.653Z,16.23
2019-03-21T06:31:36.618Z,17.17
2019-03-21T06:34:04.697Z,17.45
2019-03-21T06:36:32.870Z,15.65
2019-03-21T06:39:00.833Z,16.15
2019-03-21T06:41:28.800Z,14.53
2019-03-21T06:43:57.588Z,16.07
2019-03-21T06:46:25.774Z,16.55
2019-03-21T06:48:53.738Z,14.28
2019-03-21T06:51:21.802Z,15.63
2019-03-21T06:53:50.596Z,16.50
2019-03-21T06:56:18.353Z,15.63
2019-03-21T06:58:46.318Z,16.37
2019-03-21T07:01:14.798Z,14.15
2019-03-21T07:03:42.977Z,13.40
2019-03-21T07:06:10.945Z,11.85
2019-03-21T07:08:38.910Z,10.30
2019-03-21T07:11:06.890Z,17.67
2019-03-21T07:13:34.955Z,8.88
2019-03-21T07:16:03.028Z,8.93
2019-03-21T07:18:30.987Z,9.60
2019-03-21T07:21:01.029Z,9.35
2019-03-21T07:23:28.776Z,9.03
2019-03-21T07:25:56.737Z,10.93
2019-03-21T07:28:24.809Z,8.33
2019-03-21T07:30:52.877Z,8.53
2019-03-21T07:33:20.851Z,6.85
2019-03-21T07:35:49.021Z,7.22
2019-03-21T07:38:17.094Z,7.58
2019-03-21T07:40:44.857Z,5.50
2019-03-21T07:43:12.724Z,7.72
2019-03-21T07:45:40.696Z,8.05
2019-03-21T07:48:08.659Z,7.37
2019-03-21T07:50:36.835Z,8.40
2019-03-21T07:53:05.105Z,7.58
2019-03-21T07:55:32.877Z,7.65
2019-03-21T07:58:00.840Z,6.45
2019-03-21T08:00:28.915Z,8.65
2019-03-21T08:02:57.498Z,6.58
2019-03-21T08:05:25.363Z,6.55
2019-03-21T08:07:53.127Z,5.83
2019-03-21T08:10:21.101Z,6.10
2019-03-21T08:12:49.065Z,6.28
2019-03-21T08:15:17.133Z,7.15
2019-03-21T08:17:45.206Z,7.03
2019-03-21T08:20:13.990Z,7.42
2019-03-21T08:22:41.449Z,5.92
2019-03-21T08:25:09.929Z,6.83
2019-03-21T08:27:37.589Z,6.30
2019-03-21T08:30:27.267Z,6.72
2019-03-21T08:32:55.134Z,7.10
2019-03-21T08:35:23.204Z,7.35
2019-03-21T08:37:51.483Z,6.50
2019-03-21T08:40:22.629Z,6.87
2019-03-21T08:42:50.592Z,6.03
2019-03-21T08:45:18.676Z,5.67
2019-03-21T08:47:47.453Z,6.25
2019-03-21T08:50:15.428Z,6.22
2019-03-21T08:52:43.078Z,6.55
2019-03-21T08:55:13.302Z,5.83
2019-03-21T08:57:41.067Z,5.95
2019-03-21T09:00:14.074Z,6.20
2019-03-21T09:02:42.533Z,7.45
2019-03-21T09:05:10.504Z,6.80
2019-03-21T09:07:38.464Z,6.80
2019-03-21T09:10:08.494Z,8.48
2019-03-21T09:12:36.253Z,7.12
2019-03-21T09:15:09.135Z,6.70
2019-03-21T09:17:36.595Z,8.38
2019-03-21T09:20:05.686Z,7.95
2019-03-21T09:22:33.781Z,8.70
2019-03-21T09:25:04.978Z,9.10
2019-03-21T09:27:32.455Z,8.85
2019-03-21T09:30:01.919Z,8.38
2019-03-21T09:32:30.447Z,9.35
2019-03-21T09:34:58.408Z,10.70
2019-03-21T09:37:26.488Z,9.60
2019-03-21T09:39:54.455Z,7.60
2019-03-21T09:42:22.634Z,7.47
2019-03-21T09:44:50.593Z,8.68
2019-03-21T09:47:18.990Z,8.53
2019-03-21T09:49:46.736Z,10.40
2019-03-21T09:52:14.805Z,10.60
2019-03-21T09:54:43.085Z,10.38
2019-03-21T09:57:10.846Z,10.30
2019-03-21T09:59:38.914Z,11.08
2019-03-21T10:02:07.296Z,10.45
2019-03-21T10:04:34.958Z,9.40
2019-03-21T10:07:02.923Z,8.90
2019-03-21T10:09:30.789Z,8.63
2019-03-21T10:11:58.655Z,8.38
2019-03-21T10:14:26.723Z,9.30
2019-03-21T10:16:54.698Z,8.50
2019-03-21T10:19:23.792Z,8.05
2019-03-21T10:21:52.069Z,8.08
2019-03-21T10:24:20.037Z,9.88
2019-03-21T10:26:48.003Z,9.63
2019-03-21T10:29:15.971Z,10.23
2019-03-21T10:31:44.036Z,9.00
2019-03-21T10:34:12.009Z,7.67
2019-03-21T10:36:40.181Z,8.73
2019-03-21T10:39:08.258Z,8.60
2019-03-21T10:41:36.015Z,9.83
2019-03-21T10:44:03.987Z,8.13
2019-03-21T10:46:31.956Z,8.98
2019-03-21T10:48:59.925Z,9.43
2019-03-21T10:51:27.893Z,10.03
2019-03-21T10:53:56.375Z,6.00
2019-03-21T10:56:24.233Z,6.45
2019-03-21T10:58:52.209Z,6.37
2019-03-21T11:01:21.610Z,6.80
2019-03-21T11:03:49.580Z,7.67
2019-03-21T11:06:17.549Z,7.20
2019-03-21T11:08:45.520Z,7.50
2019-03-21T11:11:13.491Z,7.75
2019-03-21T11:13:41.456Z,6.87
2019-03-21T11:16:09.428Z,7.25
2019-03-21T11:18:37.391Z,8.38
2019-03-21T11:21:05.353Z,8.73
2019-03-21T11:23:33.425Z,11.00
2019-03-21T11:26:01.513Z,9.00
2019-03-21T11:28:29.369Z,10.35
2019-03-21T11:30:57.335Z,10.78
2019-03-21T11:33:25.200Z,11.18
2019-03-21T11:35:53.168Z,10.70
2019-03-21T11:38:21.237Z,12.03
2019-03-21T11:40:49.017Z,11.30
2019-03-21T11:43:17.072Z,10.65
2019-03-21T11:45:47.633Z,11.10
2019-03-21T11:48:14.774Z,10.90
2019-03-21T11:50:42.826Z,11.78
2019-03-21T11:53:11.101Z,11.95
2019-03-21T11:55:38.974Z,12.25
2019-03-21T11:58:06.940Z,11.68
2019-03-21T12:00:42.808Z,9.48
2019-03-21T12:03:05.284Z,10.40
2019-03-21T12:05:33.089Z,9.00
2019-03-21T12:08:01.178Z,8.88
2019-03-21T12:10:29.027Z,10.88
2019-03-21T12:12:57.098Z,9.18
2019-03-21T12:15:25.168Z,9.18
2019-03-21T12:17:53.055Z,9.08
2019-03-21T12:20:27.048Z,9.38
2019-03-21T12:22:54.711Z,10.05
2019-03-21T12:25:22.685Z,10.20
2019-03-21T12:27:50.745Z,11.90
2019-03-21T12:30:33.255Z,12.70
2019-03-21T12:33:01.023Z,10.93
2019-03-21T12:35:29.091Z,12.65
2019-03-21T12:37:57.269Z,13.05
2019-03-21T12:40:25.128Z,14.38
2019-03-21T12:42:53.098Z,16.07
2019-03-21T12:45:20.961Z,12.45
2019-03-21T12:47:48.933Z,12.55
2019-03-21T12:50:17.004Z,11.57
2019-03-21T12:52:45.079Z,12.88
2019-03-21T12:55:13.467Z,13.38
2019-03-21T12:57:41.523Z,15.85
2019-03-21T13:00:13.492Z,14.28
2019-03-21T13:02:43.158Z,12.68
2019-03-21T13:05:28.369Z,10.25
2019-03-21T13:07:56.235Z,9.13
2019-03-21T13:10:24.202Z,10.80
2019-03-21T13:12:52.283Z,10.65
2019-03-21T13:15:29.457Z,11.55
2019-03-21T13:17:49.954Z,11.38
2019-03-21T13:20:17.922Z,8.53
2019-03-21T13:22:52.822Z,7.67
2019-03-21T13:25:15.705Z,8.20
2019-03-21T13:27:43.571Z,7.87
2019-03-21T13:30:12.048Z,8.85
2019-03-21T13:32:39.917Z,8.58
2019-03-21T13:35:07.987Z,8.73
2019-03-21T13:37:36.052Z,9.55
2019-03-21T13:40:05.376Z,9.15
2019-03-21T13:42:33.116Z,9.15
2019-03-21T13:45:01.213Z,9.73
2019-03-21T13:47:29.152Z,11.55
2019-03-21T13:49:57.331Z,9.78
2019-03-21T13:52:25.302Z,9.75
2019-03-21T13:54:53.680Z,10.45
2019-03-21T13:57:21.440Z,9.98
2019-03-21T13:59:49.410Z,10.10
2019-03-21T14:02:17.893Z,12.13
2019-03-21T14:04:45.970Z,11.33
2019-03-21T14:07:13.928Z,12.18
2019-03-21T14:09:42.000Z,11.18
2019-03-21T14:12:09.973Z,10.48
2019-03-21T14:14:37.939Z,15.10
2019-03-21T14:17:05.913Z,11.43
2019-03-21T14:19:33.884Z,16.25
2019-03-21T14:22:02.970Z,12.88
2019-03-21T14:24:30.952Z,12.60
2019-03-21T14:26:59.117Z,13.08
2019-03-21T14:29:26.979Z,13.45
2019-03-21T14:31:55.152Z,13.55
2019-03-21T14:34:22.814Z,13.10
2019-03-21T14:36:50.782Z,13.05
2019-03-21T14:39:18.862Z,13.83
2019-03-21T14:41:46.823Z,13.68
2019-03-21T14:44:14.892Z,13.50
2019-03-21T14:46:42.780Z,13.48
2019-03-21T14:49:11.950Z,14.23
2019-03-21T14:51:39.919Z,14.73
2019-03-21T14:54:08.202Z,14.43
2019-03-21T14:56:36.063Z,13.78
2019-03-21T14:59:04.150Z,13.90
2019-03-21T15:01:32.613Z,13.60
2019-03-21T15:04:00.718Z,13.98
2019-03-21T15:06:28.654Z,13.35
2019-03-21T15:08:56.650Z,13.55
2019-03-21T15:11:25.407Z,11.50
2019-03-21T15:13:53.379Z,11.25
2019-03-21T15:16:21.349Z,11.83
2019-03-21T15:18:49.639Z,11.53
2019-03-21T15:21:17.696Z,11.60
2019-03-21T15:23:45.867Z,13.68
2019-03-21T15:26:13.944Z,11.40
2019-03-21T15:28:41.809Z,10.58
2019-03-21T15:31:09.880Z,11.53
2019-03-21T15:33:38.666Z,11.18
2019-03-21T15:36:08.480Z,12.20
2019-03-21T15:38:36.513Z,11.45
2019-03-21T15:41:04.819Z,11.95
2019-03-21T15:43:32.792Z,12.98
2019-03-21T15:46:01.681Z,12.78
2019-03-21T15:48:29.755Z,14.45
2019-03-21T15:51:04.316Z,13.93
2019-03-21T15:53:27.952Z,15.63
2019-03-21T15:55:55.502Z,16.87
2019-03-21T15:58:23.476Z,17.85
2019-03-21T16:00:51.951Z,18.98
2019-03-21T16:03:20.332Z,18.48
2019-03-21T16:05:48.841Z,18.80
2019-03-21T16:08:16.987Z,18.35
2019-03-21T16:10:44.952Z,20.90
2019-03-21T16:13:13.021Z,18.10
2019-03-21T16:15:40.690Z,27.10
2019-03-21T16:18:08.654Z,19.50
2019-03-21T16:20:36.620Z,18.87
2019-03-21T16:23:04.591Z,20.65
2019-03-21T16:25:32.565Z,20.50
2019-03-21T16:28:00.532Z,22.37
2019-03-21T16:30:28.497Z,22.48
2019-03-21T16:32:56.470Z,23.27
2019-03-21T16:35:24.532Z,24.57
2019-03-21T16:37:52.398Z,21.00
2019-03-21T16:40:20.370Z,24.12
2019-03-21T16:42:48.544Z,24.52
2019-03-21T16:45:16.406Z,22.37
2019-03-21T16:47:44.374Z,25.32
2019-03-21T16:50:13.373Z,22.90
2019-03-21T16:52:42.566Z,21.77
2019-03-21T16:55:12.379Z,22.27
2019-03-21T16:57:40.253Z,21.65
2019-03-21T17:00:11.590Z,22.62
2019-03-21T17:02:40.477Z,23.38
2019-03-21T17:05:08.346Z,22.40
2019-03-21T17:07:36.317Z,23.38
2019-03-21T17:10:11.880Z,25.17
2019-03-21T17:12:40.815Z,24.82
2019-03-21T17:15:10.873Z,24.12
2019-03-21T17:17:38.536Z,26.45
2019-03-21T17:20:11.842Z,24.98
2019-03-21T17:22:40.515Z,24.60
2019-03-21T17:25:09.110Z,26.10
2019-03-21T17:27:37.272Z,23.10
2019-03-21T17:30:11.182Z,26.07
2019-03-21T17:32:39.352Z,22.93
2019-03-21T17:35:08.954Z,21.65
2019-03-21T17:37:37.655Z,21.23
2019-03-21T17:40:08.677Z,19.48
2019-03-21T17:42:36.341Z,21.57
2019-03-21T17:45:09.541Z,16.55
2019-03-21T17:47:38.320Z,16.82
2019-03-21T17:50:07.311Z,15.20
2019-03-21T17:52:35.182Z,12.55
2019-03-21T17:55:05.494Z,14.10
2019-03-21T17:57:34.944Z,14.13
2019-03-21T18:00:21.816Z,11.65
2019-03-21T18:02:50.708Z,11.55
2019-03-21T18:05:18.687Z,11.28
2019-03-21T18:07:46.650Z,11.65
2019-03-21T18:10:24.237Z,9.43
2019-03-21T18:12:52.309Z,10.28
2019-03-21T18:15:20.322Z,10.40
2019-03-21T18:17:48.253Z,10.58
2019-03-21T18:20:16.211Z,10.95
2019-03-21T18:22:45.763Z,11.43
2019-03-21T18:25:13.502Z,11.73
2019-03-21T18:27:41.450Z,13.13
2019-03-21T18:30:09.422Z,11.97
2019-03-21T18:32:37.394Z,12.13
2019-03-21T18:35:05.567Z,11.57
2019-03-21T18:37:33.637Z,12.37
2019-03-21T18:40:01.608Z,12.78
2019-03-21T18:42:29.776Z,12.33
2019-03-21T18:44:58.063Z,11.95
2019-03-21T18:47:26.121Z,11.63
2019-03-21T18:49:54.107Z,11.38
2019-03-21T18:52:21.853Z,10.15
2019-03-21T18:54:50.540Z,12.07
2019-03-21T18:57:18.608Z,10.13
2019-03-21T18:59:47.402Z,9.53
2019-03-21T19:02:15.567Z,10.13
2019-03-21T19:04:43.435Z,9.58
2019-03-21T19:07:11.407Z,9.05
2019-03-21T19:09:40.206Z,8.73
2019-03-21T19:12:08.273Z,8.63
2019-03-21T19:14:36.236Z,9.28
2019-03-21T19:17:04.305Z,9.28
2019-03-21T19:19:32.494Z,9.68
2019-03-21T19:22:00.443Z,9.35
2019-03-21T19:24:28.517Z,9.85
2019-03-21T19:26:57.099Z,9.08
2019-03-21T19:29:26.092Z,8.75
2019-03-21T19:31:54.167Z,9.03
2019-03-21T19:34:22.435Z,7.37
2019-03-21T19:36:50.613Z,8.73
2019-03-21T19:39:18.477Z,9.40
2019-03-21T19:41:46.447Z,9.73
2019-03-21T19:44:14.418Z,8.90
2019-03-21T19:46:42.593Z,9.25
2019-03-21T19:49:10.660Z,9.03
2019-03-21T19:51:38.644Z,9.50
2019-03-21T19:54:07.027Z,9.78
2019-03-21T19:56:35.101Z,12.07
2019-03-21T19:59:03.043Z,10.10
2019-03-21T20:01:31.937Z,9.43
2019-03-21T20:03:59.924Z,9.50
2019-03-21T20:06:27.874Z,9.90
2019-03-21T20:08:56.929Z,9.68
2019-03-21T20:11:25.870Z,9.00
2019-03-21T20:13:53.826Z,10.82
2019-03-21T20:16:21.754Z,10.03
2019-03-21T20:18:49.970Z,10.43
2019-03-21T20:21:18.040Z,10.05
2019-03-21T20:23:46.012Z,10.48
2019-03-21T20:26:14.291Z,10.82
2019-03-21T20:28:42.149Z,10.80
2019-03-21T20:31:10.116Z,10.70
2019-03-21T20:33:38.190Z,10.13
2019-03-21T20:36:06.365Z,9.68
2019-03-21T20:38:34.969Z,10.08
2019-03-21T20:41:04.348Z,10.00
2019-03-21T20:43:32.415Z,10.98
2019-03-21T20:46:00.388Z,10.10
2019-03-21T20:48:29.485Z,11.03
2019-03-21T20:50:57.553Z,11.25
2019-03-21T20:53:25.928Z,10.80
2019-03-21T20:55:54.118Z,10.58
2019-03-21T20:58:21.970Z,12.20
2019-03-21T21:00:50.248Z,11.53
2019-03-21T21:03:18.522Z,12.40
2019-03-21T21:05:46.594Z,12.05
2019-03-21T21:08:14.764Z,11.95
2019-03-21T21:10:42.732Z,13.08
2019-03-21T21:13:11.317Z,12.13
2019-03-21T21:15:39.083Z,11.53
2019-03-21T21:18:07.052Z,12.55
2019-03-21T21:20:34.917Z,12.07
2019-03-21T21:23:02.881Z,11.73
2019-03-21T21:25:30.856Z,12.35
2019-03-21T21:27:58.919Z,13.05
2019-03-21T21:30:26.888Z,12.18
2019-03-21T21:32:54.866Z,13.15
2019-03-21T21:35:22.928Z,11.73
2019-03-21T21:37:51.824Z,11.38
2019-03-21T21:40:19.794Z,13.50
2019-03-21T21:42:48.690Z,12.70
2019-03-21T21:45:16.666Z,12.85
2019-03-21T21:47:44.622Z,11.57
2019-03-21T21:50:14.014Z,12.23
2019-03-21T21:52:42.588Z,12.40
2019-03-21T21:55:10.796Z,11.85
2019-03-21T21:57:38.738Z,11.63
2019-03-21T22:00:18.694Z,11.78
2019-03-21T22:02:46.676Z,10.88
2019-03-21T22:05:14.525Z,10.13
2019-03-21T22:07:42.597Z,11.05
2019-03-21T22:10:10.461Z,10.20
2019-03-21T22:12:38.426Z,11.53
2019-03-21T22:15:11.111Z,11.80
2019-03-21T22:17:38.567Z,11.73
2019-03-21T22:20:08.386Z,12.85
2019-03-21T22:22:36.040Z,13.72
2019-03-21T22:25:05.853Z,14.00
2019-03-21T22:27:33.822Z,15.63
2019-03-21T22:30:15.207Z,16.80
2019-03-21T22:32:43.172Z,16.80
2019-03-21T22:35:11.140Z,15.93
2019-03-21T22:37:39.318Z,15.48
2019-03-21T22:40:13.221Z,15.63
2019-03-21T22:42:41.100Z,15.58
2019-03-21T22:45:12.238Z,16.60
2019-03-21T22:47:40.204Z,15.70
2019-03-21T22:50:14.919Z,15.32
2019-03-21T22:52:43.506Z,15.68
2019-03-21T22:55:12.091Z,16.90
2019-03-21T22:57:40.130Z,16.50
2019-03-21T23:00:15.090Z,16.60
2019-03-21T23:02:45.122Z,17.07
2019-03-21T23:05:13.693Z,16.62
2019-03-21T23:07:41.664Z,17.20
2019-03-21T23:10:09.731Z,16.32
2019-03-21T23:12:37.808Z,16.67
2019-03-21T23:15:08.335Z,16.35
2019-03-21T23:17:38.382Z,16.60
2019-03-21T23:20:08.469Z,17.10
2019-03-21T23:22:36.236Z,17.07
2019-03-21T23:25:06.045Z,16.85
2019-03-21T23:27:34.113Z,17.67
2019-03-21T23:30:05.770Z,17.85
2019-03-21T23:32:33.640Z,18.25
2019-03-21T23:35:02.251Z,17.35
2019-03-21T23:37:30.906Z,18.52
2019-03-21T23:39:58.873Z,17.95
2019-03-21T23:42:26.843Z,19.50
2019-03-21T23:44:54.808Z,21.87
2019-03-21T23:47:22.776Z,23.27
2019-03-21T23:49:50.752Z,22.93
2019-03-21T23:52:18.827Z,23.87
2019-03-21T23:54:48.012Z,22.58
2019-03-21T23:57:16.194Z,23.92
2019-03-21T23:59:44.159Z,22.95
